createdAt,value
2023-02-12T00:00:03.661Z,21.77
2023-02-12T00:02:30.592Z,21.73
2023-02-12T00:04:57.210Z,22.13
2023-02-12T00:07:24.269Z,21.75
2023-02-12T00:09:50.881Z,21.33
2023-02-12T00:12:17.565Z,20.85
2023-02-12T00:14:44.366Z,22.98
2023-02-12T00:17:10.972Z,22.27
2023-02-12T00:19:37.601Z,21.40
2023-02-12T00:22:04.719Z,20.42
2023-02-12T00:24:31.367Z,23.05
2023-02-12T00:26:58.010Z,22.92
2023-02-12T00:29:25.224Z,20.67
2023-02-12T00:31:51.883Z,23.35
2023-02-12T00:34:18.564Z,24.85
2023-02-12T00:36:45.535Z,22.30
2023-02-12T00:39:12.406Z,23.80
2023-02-12T00:41:39.264Z,22.25
2023-02-12T00:44:06.112Z,22.23
2023-02-12T00:46:32.736Z,21.52
2023-02-12T00:48:59.592Z,21.75
2023-02-12T00:51:26.270Z,21.60
2023-02-12T00:53:53.152Z,22.70
2023-02-12T00:56:19.864Z,23.45
2023-02-12T00:58:46.563Z,23.00
2023-02-12T01:01:13.281Z,24.00
2023-02-12T01:03:39.924Z,23.25
2023-02-12T01:06:06.986Z,24.70
2023-02-12T01:08:33.773Z,25.65
2023-02-12T01:11:03.161Z,24.65
2023-02-12T01:13:31.744Z,25.70
2023-02-12T01:16:19.456Z,24.83
2023-02-12T01:18:46.915Z,25.02
2023-02-12T01:21:19.214Z,25.15
2023-02-12T01:23:46.683Z,25.13
2023-02-12T01:26:14.513Z,24.35
2023-02-12T01:28:42.600Z,24.70
2023-02-12T01:31:14.478Z,24.02
2023-02-12T01:33:42.007Z,23.77
2023-02-12T01:36:09.622Z,23.50
2023-02-12T01:38:36.240Z,22.85
2023-02-12T01:41:09.801Z,23.52
2023-02-12T01:43:37.221Z,21.90
2023-02-12T01:46:04.905Z,22.63
2023-02-12T01:48:37.305Z,22.38
2023-02-12T01:51:04.715Z,22.65
2023-02-12T01:53:39.429Z,22.92
2023-02-12T01:56:07.257Z,22.08
2023-02-12T01:58:41.669Z,22.15
2023-02-12T02:01:12.648Z,22.67
2023-02-12T02:03:42.298Z,21.33
2023-02-12T02:06:12.984Z,23.70
2023-02-12T02:08:41.640Z,21.80
2023-02-12T02:11:26.953Z,23.63
2023-02-12T02:14:15.850Z,21.50
2023-02-12T02:16:52.051Z,22.15
2023-02-12T02:19:37.209Z,20.85
2023-02-12T02:22:06.678Z,22.50
2023-02-12T02:24:52.264Z,20.73
2023-02-12T02:28:04.336Z,22.05
2023-02-12T02:30:54.290Z,21.88
2023-02-12T02:33:59.621Z,23.48
2023-02-12T02:36:59.145Z,26.77
2023-02-12T02:39:36.342Z,30.17
2023-02-12T02:42:25.083Z,28.20
2023-02-12T02:45:16.898Z,28.02
2023-02-12T02:47:48.183Z,27.05
2023-02-12T02:50:19.055Z,28.02
2023-02-12T02:52:52.645Z,26.83
2023-02-12T02:55:22.589Z,26.00
2023-02-12T02:57:56.340Z,25.95
2023-02-12T03:00:43.966Z,26.58
2023-02-12T03:03:25.792Z,29.10
2023-02-12T03:05:58.956Z,27.17
2023-02-12T03:08:35.034Z,26.23
2023-02-12T03:11:11.776Z,25.10
2023-02-12T03:13:57.232Z,27.85
2023-02-12T03:16:29.506Z,25.30
2023-02-12T03:19:15.325Z,27.80
2023-02-12T03:22:02.756Z,29.88
2023-02-12T03:24:36.243Z,28.23
2023-02-12T03:27:23.481Z,27.00
2023-02-12T03:29:50.229Z,24.13
2023-02-12T03:32:51.062Z,24.52
2023-02-12T03:35:23.879Z,24.45
2023-02-12T03:38:03.523Z,23.90
2023-02-12T03:40:36.659Z,25.50
2023-02-12T03:43:10.317Z,25.85
2023-02-12T03:45:56.594Z,27.30
2023-02-12T03:48:32.731Z,27.00
2023-02-12T03:51:05.304Z,25.92
2023-02-12T03:53:32.749Z,26.75
2023-02-12T03:56:12.879Z,26.40
2023-02-12T03:58:43.123Z,25.80
2023-02-12T04:01:10.234Z,26.23
2023-02-12T04:03:37.347Z,27.40
2023-02-12T04:06:04.250Z,25.70
2023-02-12T04:08:33.650Z,27.92
2023-02-12T04:11:13.961Z,25.20
2023-02-12T04:13:40.497Z,26.48
2023-02-12T04:16:38.207Z,25.98
2023-02-12T04:19:05.412Z,26.48
2023-02-12T04:22:07.640Z,28.00
2023-02-12T04:24:57.934Z,25.83
2023-02-12T04:27:49.094Z,27.65
2023-02-12T04:30:29.216Z,26.92
2023-02-12T04:33:02.055Z,26.70
2023-02-12T04:35:35.715Z,28.67
2023-02-12T04:38:26.181Z,27.63
2023-02-12T04:40:53.792Z,26.92
2023-02-12T04:43:31.506Z,27.95
2023-02-12T04:45:58.586Z,28.60
2023-02-12T04:48:25.448Z,32.25
2023-02-12T04:50:52.702Z,30.13
2023-02-12T04:53:19.418Z,31.30
2023-02-12T04:55:47.727Z,30.05
2023-02-12T04:58:14.548Z,28.15
2023-02-12T05:00:41.250Z,28.73
2023-02-12T05:03:07.827Z,28.73
2023-02-12T05:05:34.684Z,28.58
2023-02-12T05:08:01.692Z,28.95
2023-02-12T05:10:28.318Z,27.90
2023-02-12T05:12:55.561Z,25.60
2023-02-12T05:15:22.661Z,27.00
2023-02-12T05:17:49.376Z,28.77
2023-02-12T05:20:16.336Z,27.25
2023-02-12T05:22:43.144Z,30.02
2023-02-12T05:25:10.071Z,27.05
2023-02-12T05:27:36.801Z,26.63
2023-02-12T05:30:05.566Z,26.38
2023-02-12T05:32:32.187Z,28.35
2023-02-12T05:34:58.902Z,29.98
2023-02-12T05:37:25.645Z,29.63
2023-02-12T05:39:52.217Z,29.27
2023-02-12T05:42:18.788Z,28.80
2023-02-12T05:44:45.674Z,26.77
2023-02-12T05:47:12.333Z,27.58
2023-02-12T05:49:38.922Z,37.05
2023-02-12T05:52:05.544Z,28.65
2023-02-12T05:54:32.126Z,35.63
2023-02-12T05:56:58.745Z,26.92
2023-02-12T05:59:25.549Z,26.40
2023-02-12T06:01:53.065Z,27.77
2023-02-12T06:04:25.570Z,28.13
2023-02-12T06:06:53.774Z,29.88
2023-02-12T06:09:20.533Z,29.15
2023-02-12T06:11:47.391Z,27.70
2023-02-12T06:14:16.853Z,29.50
2023-02-12T06:16:48.821Z,37.58
2023-02-12T06:19:15.748Z,30.00
2023-02-12T06:21:42.708Z,26.42
2023-02-12T06:24:12.604Z,27.40
2023-02-12T06:26:39.522Z,26.45
2023-02-12T06:29:06.293Z,27.80
2023-02-12T06:31:36.182Z,27.92
2023-02-12T06:34:07.072Z,26.90
2023-02-12T06:36:34.518Z,25.92
2023-02-12T06:39:02.951Z,26.90
2023-02-12T06:41:29.990Z,26.77
2023-02-12T06:43:56.624Z,26.08
2023-02-12T06:46:24.096Z,25.60
2023-02-12T06:48:58.968Z,26.15
2023-02-12T06:51:27.858Z,25.45
2023-02-12T06:53:55.754Z,26.77
2023-02-12T06:56:23.631Z,26.42
2023-02-12T06:58:56.244Z,26.15
2023-02-12T07:01:26.163Z,24.48
2023-02-12T07:04:02.411Z,24.70
2023-02-12T07:06:31.145Z,25.17
2023-02-12T07:08:58.508Z,25.48
2023-02-12T07:11:27.526Z,24.95
2023-02-12T07:13:54.494Z,26.63
2023-02-12T07:16:21.745Z,27.15
2023-02-12T07:18:48.732Z,27.50
2023-02-12T07:21:16.668Z,27.45
2023-02-12T07:23:50.841Z,27.65
2023-02-12T07:26:19.409Z,25.80
2023-02-12T07:28:46.081Z,29.00
2023-02-12T07:31:31.277Z,27.58
2023-02-12T07:33:59.849Z,28.83
2023-02-12T07:36:29.234Z,28.55
2023-02-12T07:38:57.678Z,28.30
2023-02-12T07:41:32.512Z,28.80
2023-02-12T07:44:09.370Z,28.50
2023-02-12T07:46:48.138Z,27.98
2023-02-12T07:49:18.754Z,27.58
2023-02-12T07:51:46.267Z,30.08
2023-02-12T07:54:13.832Z,27.95
2023-02-12T07:56:42.718Z,28.02
2023-02-12T07:59:14.246Z,29.17
2023-02-12T08:01:46.256Z,29.88
2023-02-12T08:04:15.416Z,30.13
2023-02-12T08:06:47.785Z,27.58
2023-02-12T08:09:20.594Z,28.17
2023-02-12T08:11:47.817Z,27.27
2023-02-12T08:14:17.117Z,27.48
2023-02-12T08:16:45.434Z,27.10
2023-02-12T08:19:19.792Z,25.50
2023-02-12T08:21:53.224Z,25.75
2023-02-12T08:24:22.031Z,26.20
2023-02-12T08:26:48.882Z,25.90
2023-02-12T08:29:18.788Z,26.42
2023-02-12T08:31:49.020Z,26.35
2023-02-12T08:34:23.386Z,26.38
2023-02-12T08:36:51.917Z,26.70
2023-02-12T08:39:19.040Z,26.20
2023-02-12T08:41:46.667Z,26.60
2023-02-12T08:44:13.874Z,26.83
2023-02-12T08:46:46.785Z,27.42
2023-02-12T08:49:17.225Z,26.70
2023-02-12T08:51:46.374Z,24.38
2023-02-12T08:54:14.956Z,27.13
2023-02-12T08:56:42.682Z,26.98
2023-02-12T08:59:10.678Z,25.20
2023-02-12T09:01:38.668Z,26.95
2023-02-12T09:04:06.488Z,29.15
2023-02-12T09:06:35.355Z,28.02
2023-02-12T09:09:02.758Z,30.38
2023-02-12T09:11:33.656Z,28.38
2023-02-12T09:14:06.186Z,27.70
2023-02-12T09:16:35.234Z,28.77
2023-02-12T09:19:02.928Z,27.23
2023-02-12T09:21:29.780Z,29.42
2023-02-12T09:23:57.087Z,26.40
2023-02-12T09:26:28.379Z,28.88
2023-02-12T09:28:55.511Z,26.77
2023-02-12T09:31:28.749Z,27.13
2023-02-12T09:33:59.785Z,25.93
2023-02-12T09:36:26.902Z,26.83
2023-02-12T09:38:57.881Z,28.58
2023-02-12T09:41:33.848Z,27.40
2023-02-12T09:44:21.210Z,24.30
2023-02-12T09:46:54.072Z,25.27
2023-02-12T09:49:32.428Z,25.50
2023-02-12T09:52:00.519Z,25.33
2023-02-12T09:54:37.698Z,25.00
2023-02-12T09:57:11.773Z,27.48
2023-02-12T09:59:47.655Z,26.10
2023-02-12T10:02:20.452Z,26.23
2023-02-12T10:07:43.637Z,25.98
2023-02-12T10:10:28.795Z,25.30
2023-02-12T10:13:04.024Z,26.52
2023-02-12T10:15:58.801Z,25.67
2023-02-12T10:18:39.123Z,28.02
2023-02-12T10:21:42.500Z,28.23
2023-02-12T10:24:18.453Z,30.13
2023-02-12T10:26:53.115Z,30.67
2023-02-12T10:29:24.477Z,30.98
2023-02-12T10:31:55.258Z,31.17
2023-02-12T10:34:26.073Z,32.95
2023-02-12T10:36:58.358Z,33.60
2023-02-12T10:39:32.956Z,32.63
2023-02-12T10:42:43.119Z,31.98
2023-02-12T10:45:19.381Z,33.13
2023-02-12T10:47:50.316Z,32.90
2023-02-12T10:50:25.864Z,34.05
2023-02-12T10:52:57.121Z,31.23
2023-02-12T10:55:27.000Z,32.55
2023-02-12T10:57:54.558Z,32.85
2023-02-12T11:00:31.941Z,33.92
2023-02-12T11:03:04.903Z,31.85
2023-02-12T11:05:35.856Z,37.60
2023-02-12T11:08:03.099Z,32.70
2023-02-12T11:10:38.129Z,32.95
2023-02-12T11:13:06.190Z,31.45
2023-02-12T11:15:48.477Z,30.80
2023-02-12T11:18:27.009Z,30.60
2023-02-12T11:20:58.110Z,29.55
2023-02-12T11:23:33.314Z,32.90
2023-02-12T11:26:20.321Z,32.20
2023-02-12T11:29:02.319Z,31.55
2023-02-12T11:31:31.655Z,33.90
2023-02-12T11:34:21.706Z,29.77
2023-02-12T11:36:54.300Z,31.15
2023-02-12T11:39:29.016Z,30.90
2023-02-12T11:41:59.924Z,31.23
2023-02-12T11:44:30.170Z,32.00
2023-02-12T11:47:02.343Z,31.98
2023-02-12T11:49:32.810Z,31.23
2023-02-12T11:52:02.498Z,30.92
2023-02-12T11:54:34.261Z,30.23
2023-02-12T11:57:02.932Z,32.47
2023-02-12T11:59:40.995Z,35.25
2023-02-12T12:02:40.028Z,35.00
2023-02-12T12:05:15.783Z,34.85
2023-02-12T12:07:51.014Z,31.15
2023-02-12T12:10:34.182Z,34.15
2023-02-12T12:13:06.620Z,32.30
2023-02-12T12:15:59.141Z,33.80
2023-02-12T12:18:48.642Z,29.33
2023-02-12T12:21:34.209Z,30.58
2023-02-12T12:24:15.008Z,31.35
2023-02-12T12:26:48.254Z,31.67
2023-02-12T12:29:26.756Z,31.58
2023-02-12T12:32:01.713Z,29.73
2023-02-12T12:34:29.571Z,29.92
2023-02-12T12:37:03.025Z,30.85
2023-02-12T12:39:59.335Z,28.55
2023-02-12T12:42:41.475Z,29.60
2023-02-12T12:45:14.297Z,30.85
2023-02-12T12:48:06.309Z,31.50
2023-02-12T12:50:58.475Z,30.58
2023-02-12T12:53:37.219Z,29.90
2023-02-12T12:56:13.246Z,29.23
2023-02-12T12:59:10.980Z,28.67
2023-02-12T13:01:47.088Z,29.25
2023-02-12T13:04:28.612Z,29.70
2023-02-12T13:07:20.240Z,31.63
2023-02-12T13:10:14.852Z,28.60
2023-02-12T13:13:18.432Z,30.95
2023-02-12T13:16:00.612Z,29.60
2023-02-12T13:19:15.785Z,29.05
2023-02-12T13:21:59.443Z,27.67
2023-02-12T13:24:38.868Z,27.73
2023-02-12T13:27:37.960Z,26.63
2023-02-12T13:30:18.028Z,28.02
2023-02-12T13:33:23.728Z,26.30
2023-02-12T13:35:55.352Z,27.63
2023-02-12T13:38:53.737Z,28.98
2023-02-12T13:41:21.794Z,27.88
2023-02-12T13:43:59.981Z,28.33
2023-02-12T13:46:44.479Z,25.58
2023-02-12T13:52:28.067Z,26.65
2023-02-12T13:55:09.538Z,26.73
2023-02-12T13:57:36.218Z,25.33
2023-02-12T14:00:08.350Z,25.48
2023-02-12T14:02:36.633Z,26.23
2023-02-12T14:05:15.255Z,26.05
2023-02-12T14:07:47.152Z,24.98
2023-02-12T14:10:30.528Z,27.88
2023-02-12T14:13:11.223Z,27.08
2023-02-12T14:15:48.505Z,25.55
2023-02-12T14:18:39.899Z,26.27
2023-02-12T14:21:10.289Z,28.48
2023-02-12T14:23:37.727Z,27.65
2023-02-12T14:26:22.665Z,25.38
2023-02-12T14:29:01.957Z,28.08
2023-02-12T14:31:37.666Z,26.33
2023-02-12T14:34:11.316Z,25.83
2023-02-12T14:36:42.919Z,25.98
2023-02-12T14:39:24.672Z,27.27
2023-02-12T14:42:12.556Z,28.83
2023-02-12T14:44:45.939Z,25.50
2023-02-12T14:47:34.462Z,28.38
2023-02-12T14:50:15.381Z,29.25
2023-02-12T14:52:47.445Z,33.15
2023-02-12T14:55:24.730Z,32.38
2023-02-12T14:57:58.554Z,27.85
2023-02-12T15:00:41.362Z,26.35
2023-02-12T15:03:18.248Z,30.63
2023-02-12T15:06:02.078Z,32.45
2023-02-12T15:08:43.139Z,30.38
2023-02-12T15:11:39.455Z,28.02
2023-02-12T15:14:13.711Z,26.88
2023-02-12T15:17:03.041Z,25.05
2023-02-12T15:19:46.403Z,24.65
2023-02-12T15:22:21.210Z,23.88
2023-02-12T15:24:48.249Z,22.90
2023-02-12T15:27:16.206Z,24.13
2023-02-12T15:29:52.936Z,22.83
2023-02-12T15:32:24.883Z,24.50
2023-02-12T15:34:52.564Z,22.85
2023-02-12T15:37:28.880Z,24.92
2023-02-12T15:40:01.697Z,23.70
2023-02-12T15:42:30.186Z,24.13
2023-02-12T15:45:26.922Z,24.27
2023-02-12T15:48:13.485Z,24.25
2023-02-12T15:50:47.868Z,27.30
2023-02-12T15:53:15.802Z,26.88
2023-02-12T15:55:48.036Z,27.23
2023-02-12T15:58:25.762Z,27.20
2023-02-12T16:00:54.812Z,26.92
2023-02-12T16:03:27.899Z,27.83
2023-02-12T16:06:02.854Z,28.40
2023-02-12T16:08:31.877Z,26.05
2023-02-12T16:10:58.941Z,26.17
2023-02-12T16:13:34.902Z,27.13
2023-02-12T16:16:26.947Z,27.08
2023-02-12T16:19:04.635Z,27.02
2023-02-12T16:21:31.773Z,25.88
2023-02-12T16:23:58.471Z,24.67
2023-02-12T16:26:26.974Z,25.80
2023-02-12T16:28:56.814Z,26.08
2023-02-12T16:31:27.072Z,24.92
2023-02-12T16:33:57.875Z,26.10
2023-02-12T16:36:24.457Z,26.15
2023-02-12T16:38:55.518Z,27.90
2023-02-12T16:41:25.460Z,26.45
2023-02-12T16:44:01.464Z,25.60
2023-02-12T16:46:53.510Z,30.73
2023-02-12T16:49:23.764Z,26.50
2023-02-12T16:51:52.172Z,29.52
2023-02-12T16:54:35.874Z,30.65
2023-02-12T16:57:03.198Z,37.28
2023-02-12T16:59:29.866Z,28.15
2023-02-12T17:02:11.028Z,29.63
2023-02-12T17:04:37.728Z,31.08
2023-02-12T17:07:05.031Z,31.20
2023-02-12T17:09:31.930Z,32.08
2023-02-12T17:11:58.711Z,27.85
2023-02-12T17:14:25.397Z,29.50
2023-02-12T17:16:52.644Z,30.30
2023-02-12T17:19:19.352Z,31.00
2023-02-12T17:21:49.547Z,31.02
2023-02-12T17:24:22.327Z,36.42
2023-02-12T17:26:53.517Z,35.92
2023-02-12T17:29:22.838Z,33.92
2023-02-12T17:31:50.901Z,35.40
2023-02-12T17:34:17.618Z,35.15
2023-02-12T17:36:45.239Z,41.42
2023-02-12T17:39:14.725Z,37.15
2023-02-12T17:41:44.322Z,34.63
2023-02-12T17:44:13.333Z,36.60
2023-02-12T17:46:40.122Z,32.60
2023-02-12T17:49:06.938Z,31.27
2023-02-12T17:51:33.782Z,33.15
2023-02-12T17:54:02.478Z,31.10
2023-02-12T17:56:29.213Z,31.95
2023-02-12T17:58:56.192Z,28.33
2023-02-12T18:01:24.194Z,29.55
2023-02-12T18:03:54.585Z,28.17
2023-02-12T18:06:24.402Z,28.95
2023-02-12T18:08:51.770Z,29.63
2023-02-12T18:11:19.478Z,29.50
2023-02-12T18:13:46.514Z,28.85
2023-02-12T18:16:14.271Z,29.40
2023-02-12T18:18:41.041Z,28.83
2023-02-12T18:21:10.349Z,28.02
2023-02-12T18:23:37.736Z,30.00
2023-02-12T18:26:13.808Z,28.15
2023-02-12T18:28:41.011Z,29.30
2023-02-12T18:31:08.985Z,27.92
2023-02-12T18:33:36.715Z,37.00
2023-02-12T18:36:14.310Z,38.80
2023-02-12T18:38:42.372Z,42.00
2023-02-12T18:41:12.170Z,35.60
2023-02-12T18:43:39.149Z,37.50
2023-02-12T18:46:27.252Z,34.25
2023-02-12T18:48:54.834Z,32.75
2023-02-12T18:51:27.010Z,30.25
2023-02-12T18:54:01.689Z,29.30
2023-02-12T18:56:33.990Z,28.75
2023-02-12T18:59:04.457Z,29.80
2023-02-12T19:01:32.391Z,29.35
2023-02-12T19:04:01.086Z,30.52
2023-02-12T19:06:29.373Z,28.77
2023-02-12T19:09:01.763Z,28.23
2023-02-12T19:11:29.682Z,31.48
2023-02-12T19:13:56.858Z,29.52
2023-02-12T19:16:24.830Z,31.98
2023-02-12T19:18:54.874Z,34.75
2023-02-12T19:21:23.406Z,35.88
2023-02-12T19:23:53.100Z,34.75
2023-02-12T19:26:19.849Z,34.30
2023-02-12T19:28:47.107Z,35.03
2023-02-12T19:31:28.793Z,34.60
2023-02-12T19:33:58.097Z,31.70
2023-02-12T19:36:26.691Z,38.25
2023-02-12T19:38:53.802Z,35.50
2023-02-12T19:41:23.916Z,32.88
2023-02-12T19:44:00.843Z,36.38
2023-02-12T19:46:31.069Z,36.72
2023-02-12T19:49:02.491Z,33.20
2023-02-12T19:51:30.755Z,32.58
2023-02-12T19:54:03.101Z,30.30
2023-02-12T19:56:31.033Z,32.70
2023-02-12T19:58:58.360Z,32.67
2023-02-12T20:01:25.921Z,32.60
2023-02-12T20:03:53.082Z,30.73
2023-02-12T20:06:23.048Z,31.17
2023-02-12T20:08:50.452Z,31.02
2023-02-12T20:11:20.716Z,30.70
2023-02-12T20:13:48.749Z,31.58
2023-02-12T20:16:20.166Z,32.70
2023-02-12T20:18:49.591Z,32.35
2023-02-12T20:21:22.525Z,35.92
2023-02-12T20:23:49.762Z,35.03
2023-02-12T20:26:19.698Z,31.33
2023-02-12T20:28:47.586Z,31.90
2023-02-12T20:31:27.688Z,32.80
2023-02-12T20:34:16.266Z,31.27
2023-02-12T20:36:46.205Z,32.70
2023-02-12T20:39:15.970Z,34.30
2023-02-12T20:41:43.485Z,30.52
2023-02-12T20:44:15.993Z,31.60
2023-02-12T20:46:45.747Z,35.83
2023-02-12T20:49:14.311Z,36.95
2023-02-12T20:51:41.302Z,36.85
2023-02-12T20:54:08.443Z,35.28
2023-02-12T20:56:36.563Z,34.95
2023-02-12T20:59:04.756Z,34.55
2023-02-12T21:01:35.123Z,37.53
2023-02-12T21:04:07.248Z,36.60
2023-02-12T21:06:34.725Z,38.53
2023-02-12T21:09:02.145Z,38.42
2023-02-12T21:11:30.050Z,36.17
2023-02-12T21:14:12.527Z,34.97
2023-02-12T21:16:46.047Z,35.08
2023-02-12T21:19:14.158Z,34.85
2023-02-12T21:21:42.315Z,36.65
2023-02-12T21:24:15.970Z,33.72
2023-02-12T21:26:43.245Z,32.85
2023-02-12T21:29:10.139Z,32.65
2023-02-12T21:31:39.792Z,32.22
2023-02-12T21:34:07.813Z,32.05
2023-02-12T21:36:37.172Z,31.00
2023-02-12T21:39:06.170Z,33.55
2023-02-12T21:41:35.692Z,30.67
2023-02-12T21:44:12.350Z,29.10
2023-02-12T21:46:39.759Z,31.30
2023-02-12T21:49:07.103Z,30.90
2023-02-12T21:51:37.515Z,33.38
2023-02-12T21:54:07.466Z,33.25
2023-02-12T21:56:37.101Z,34.25
2023-02-12T21:59:04.873Z,35.45
2023-02-12T22:01:36.604Z,36.20
2023-02-12T22:04:05.243Z,36.65
2023-02-12T22:06:32.598Z,39.70
2023-02-12T22:09:06.888Z,35.22
2023-02-12T22:11:35.268Z,37.47
2023-02-12T22:14:01.956Z,38.60
2023-02-12T22:16:29.327Z,35.78
2023-02-12T22:18:59.594Z,36.00
2023-02-12T22:21:31.551Z,36.63
2023-02-12T22:24:02.393Z,36.05
2023-02-12T22:26:30.551Z,38.30
2023-02-12T22:29:04.209Z,34.08
2023-02-12T22:31:33.807Z,33.00
2023-02-12T22:34:03.195Z,34.15
2023-02-12T22:36:31.204Z,35.08
2023-02-12T22:39:00.119Z,32.13
2023-02-12T22:41:28.033Z,33.28
2023-02-12T22:43:55.456Z,33.97
2023-02-12T22:46:22.716Z,32.85
2023-02-12T22:48:49.358Z,32.28
2023-02-12T22:51:25.203Z,31.80
2023-02-12T22:53:51.884Z,31.98
2023-02-12T22:56:18.826Z,36.80
2023-02-12T22:58:47.004Z,34.80
2023-02-12T23:01:16.398Z,34.03
2023-02-12T23:03:43.650Z,34.63
2023-02-12T23:06:16.146Z,31.67
2023-02-12T23:08:43.509Z,31.83
2023-02-12T23:11:11.866Z,31.45
2023-02-12T23:13:39.074Z,34.08
2023-02-12T23:16:05.840Z,33.17
2023-02-12T23:18:32.977Z,31.02
2023-02-12T23:21:00.666Z,30.17
2023-02-12T23:23:28.162Z,31.58
2023-02-12T23:25:54.774Z,31.60
2023-02-12T23:28:22.795Z,33.67
2023-02-12T23:30:51.027Z,32.97
2023-02-12T23:33:19.140Z,32.33
2023-02-12T23:35:46.975Z,32.47
2023-02-12T23:38:14.119Z,31.75
2023-02-12T23:40:40.750Z,34.53
2023-02-12T23:43:07.771Z,33.50
2023-02-12T23:45:34.790Z,33.13
2023-02-12T23:48:01.395Z,35.35
2023-02-12T23:50:28.173Z,33.17
2023-02-12T23:52:54.843Z,32.55
2023-02-12T23:55:21.692Z,34.80
2023-02-12T23:57:50.255Z,32.03
